Time;durP1;ratioP1;P1;durP2;ratioP2;P2;SDS_P1;SDS_P2;PMS_P1;PMS_P2;Temp;Humidity;BMP_temperature;BMP_pressure;BME280_temperature;BME280_humidity;BME280_pressure;Samples;Min_cycle;Max_cycle;Signal;HPM_P1;HPM_P2
2023/09/11 00:01:31;;;;;;;12.88;10.68;;;;;;;24.21;52.72;92961.91;2050536;70;20270;-75
2023/09/11 00:03:57;;;;;;;14.45;10.40;;;;;;;24.16;53.73;92957.50;2047777;70;20178;-75
2023/09/11 00:06:24;;;;;;;13.63;10.75;;;;;;;24.18;53.63;92957.53;2052268;69;20157;-75
2023/09/11 00:08:51;;;;;;;15.38;11.00;;;;;;;24.05;54.84;92961.66;2053787;70;20160;-75
2023/09/11 00:11:16;;;;;;;16.83;11.15;;;;;;;23.81;54.47;92956.28;2050158;70;20208;-75
2023/09/11 00:13:42;;;;;;;13.02;10.85;;;;;;;23.84;53.38;92949.13;2050418;70;20519;-75
2023/09/11 00:16:08;;;;;;;16.30;11.27;;;;;;;23.87;54.04;92952.75;2051868;69;20249;-74
2023/09/11 00:18:35;;;;;;;13.55;11.23;;;;;;;23.95;53.67;92950.72;2053681;70;20157;-74
2023/09/11 00:21:01;;;;;;;12.77;11.10;;;;;;;23.92;52.94;92942.78;2054284;69;20591;-75
2023/09/11 00:23:27;;;;;;;13.50;11.18;;;;;;;23.95;53.78;92942.09;2054406;70;20722;-76
2023/09/11 00:25:52;;;;;;;13.13;10.60;;;;;;;23.80;54.24;92940.44;2050556;70;20194;-76
2023/09/11 00:28:18;;;;;;;18.02;11.20;;;;;;;23.83;54.40;92934.03;2051212;70;20142;-74
2023/09/11 00:30:43;;;;;;;15.32;10.70;;;;;;;23.77;54.79;92930.34;2051685;69;20146;-74
2023/09/11 00:33:09;;;;;;;15.40;10.70;;;;;;;23.73;55.56;92933.91;2054067;70;20170;-74
2023/09/11 00:35:35;;;;;;;16.60;11.70;;;;;;;23.65;55.93;92930.88;2054247;69;20574;-74
2023/09/11 00:38:02;;;;;;;14.02;10.55;;;;;;;23.55;55.84;92925.69;2054555;70;20188;-75
2023/09/11 00:40:28;;;;;;;14.88;11.50;;;;;;;23.63;56.27;92932.97;2048164;70;20269;-75
2023/09/11 00:42:54;;;;;;;17.77;11.25;;;;;;;23.44;56.52;92934.81;2050137;70;20508;-75
2023/09/11 00:45:19;;;;;;;15.35;11.38;;;;;;;23.49;56.49;92925.56;2048331;70;20213;-75
2023/09/11 00:47:47;;;;;;;12.20;10.90;;;;;;;23.49;55.69;92925.56;2050710;70;20154;-76
2023/09/11 00:50:16;;;;;;;14.27;11.43;;;;;;;23.37;56.39;92934.00;2048399;70;20241;-75
2023/09/11 00:52:42;;;;;;;13.15;11.25;;;;;;;23.43;55.47;92927.63;2051736;70;20294;-77
2023/09/11 00:55:09;;;;;;;17.42;11.68;;;;;;;23.50;56.00;92932.03;2051760;70;20602;-78
2023/09/11 00:57:35;;;;;;;12.65;11.35;;;;;;;23.51;55.44;92931.34;2047943;70;20146;-77
2023/09/11 01:00:05;;;;;;;13.63;11.73;;;;;;;23.50;55.65;92918.41;2048063;70;20174;-76
2023/09/11 01:02:31;;;;;;;12.73;10.40;;;;;;;23.29;55.10;92930.97;2047852;70;20161;-78
2023/09/11 01:04:59;;;;;;;12.95;10.23;;;;;;;23.46;55.87;92924.09;2048513;70;20150;-77
2023/09/11 01:07:25;;;;;;;13.27;10.90;;;;;;;23.53;56.14;92924.91;2051809;70;20559;-78
2023/09/11 01:09:51;;;;;;;15.57;10.60;;;;;;;23.14;54.96;92923.53;2051905;70;20158;-75
2023/09/11 01:12:16;;;;;;;15.95;10.90;;;;;;;23.22;54.33;92926.53;2051612;70;20178;-77
2023/09/11 01:14:42;;;;;;;15.05;10.85;;;;;;;23.27;54.02;92925.91;2048063;70;20146;-74
2023/09/11 01:17:38;;;;;;;15.23;10.23;;;;;;;23.23;54.23;92925.88;2047875;70;20130;-74
2023/09/11 01:20:27;;;;;;;12.63;9.98;;;;;;;23.34;54.63;92921.75;2048580;70;20701;-74
2023/09/11 01:23:08;;;;;;;13.63;10.93;;;;;;;23.40;53.43;92920.38;2051151;70;20607;-74
2023/09/11 01:25:46;;;;;;;13.32;10.50;;;;;;;23.19;53.87;92925.78;2048328;70;20142;-76
2023/09/11 01:28:47;;;;;;;15.38;10.82;;;;;;;23.29;54.09;92913.75;2051701;70;20234;-75
2023/09/11 01:31:14;;;;;;;16.35;10.35;;;;;;;23.26;53.70;92918.72;2043932;70;20155;-76
2023/09/11 01:33:41;;;;;;;14.93;9.85;;;;;;;23.32;53.42;92923.84;2043928;70;20142;-77
2023/09/11 01:36:07;;;;;;;18.13;10.73;;;;;;;23.12;54.06;92921.34;2043873;70;20212;-76
2023/09/11 01:38:33;;;;;;;14.77;10.43;;;;;;;23.01;53.64;92925.47;2044357;70;20180;-77
2023/09/11 01:41:01;;;;;;;12.95;10.50;;;;;;;22.99;54.65;92920.41;2044043;70;20596;-78
2023/09/11 01:43:31;;;;;;;15.20;10.95;;;;;;;22.95;54.54;92919.59;2044010;70;20211;-75
2023/09/11 01:45:59;;;;;;;14.13;10.52;;;;;;;22.94;55.84;92916.00;2044119;70;20217;-75
2023/09/11 01:48:29;;;;;;;15.25;10.90;;;;;;;22.91;56.69;92908.78;2041019;70;20159;-78
2023/09/11 01:50:56;;;;;;;16.17;11.00;;;;;;;22.67;56.17;92897.53;2044210;70;20194;-77
2023/09/11 01:53:21;;;;;;;13.07;10.90;;;;;;;22.65;56.65;92919.75;2043862;70;20147;-76
2023/09/11 01:55:47;;;;;;;13.18;10.85;;;;;;;22.80;56.21;92916.44;2043834;70;20151;-78
2023/09/11 01:58:13;;;;;;;13.32;10.60;;;;;;;22.74;55.22;92909.88;2043764;70;20151;-76
2023/09/11 02:00:39;;;;;;;12.15;10.50;;;;;;;22.65;55.94;92911.13;2044123;70;20158;-76
2023/09/11 02:03:06;;;;;;;12.25;10.38;;;;;;;22.61;54.79;92908.91;2040996;70;20250;-76
2023/09/11 02:05:31;;;;;;;14.52;11.05;;;;;;;22.47;55.79;92915.09;2044214;70;20258;-77
2023/09/11 02:07:57;;;;;;;13.07;11.25;;;;;;;22.44;55.97;92907.13;2047426;70;20603;-75
2023/09/11 02:10:23;;;;;;;16.98;11.23;;;;;;;22.65;54.67;92909.00;2051723;70;20581;-76
2023/09/11 02:12:48;;;;;;;15.27;11.10;;;;;;;22.66;55.07;92912.59;2048386;70;20585;-77
2023/09/11 02:15:14;;;;;;;11.90;10.05;;;;;;;22.58;56.32;92907.41;2048442;70;20147;-76
2023/09/11 02:17:40;;;;;;;16.40;10.80;;;;;;;22.65;56.55;92902.53;2048351;70;20212;-76
2023/09/11 02:20:06;;;;;;;13.07;10.35;;;;;;;22.49;57.95;92903.66;2051829;70;20212;-77
2023/09/11 02:22:32;;;;;;;14.48;10.93;;;;;;;22.44;56.82;92910.00;2051734;70;20147;-76
2023/09/11 02:24:59;;;;;;;13.55;11.18;;;;;;;22.37;57.52;92900.56;2051179;70;20168;-77
2023/09/11 02:27:24;;;;;;;18.15;11.00;;;;;;;22.39;57.35;92905.59;2051858;70;20150;-75
2023/09/11 02:29:50;;;;;;;15.40;11.18;;;;;;;22.33;57.33;92898.34;2051548;70;20181;-76
2023/09/11 02:32:16;;;;;;;13.88;10.40;;;;;;;22.20;57.29;92908.09;2051477;70;20150;-77
2023/09/11 02:34:43;;;;;;;14.00;10.73;;;;;;;22.28;56.71;92905.41;2051692;70;20138;-76
2023/09/11 02:37:08;;;;;;;15.48;10.52;;;;;;;22.32;55.81;92905.50;2048429;70;20526;-76
2023/09/11 02:39:35;;;;;;;12.45;10.52;;;;;;;22.36;55.71;92907.72;2051840;70;20140;-75
2023/09/11 02:42:02;;;;;;;16.10;11.10;;;;;;;22.33;55.42;92901.19;2051185;70;20602;-76
2023/09/11 02:44:28;;;;;;;14.95;10.48;;;;;;;22.12;55.78;92878.53;2048330;70;20135;-75
2023/09/11 02:46:54;;;;;;;13.85;10.52;;;;;;;22.06;56.71;92899.91;2048321;70;20615;-76
2023/09/11 02:49:19;;;;;;;14.30;10.48;;;;;;;22.15;56.54;92897.97;2051492;70;20154;-78
2023/09/11 02:51:45;;;;;;;13.90;10.82;;;;;;;22.07;56.85;92894.88;2051522;70;20150;-80
2023/09/11 02:54:11;;;;;;;13.50;10.75;;;;;;;22.09;56.75;92889.22;2048306;70;20174;-76
2023/09/11 02:56:38;;;;;;;13.88;10.32;;;;;;;22.10;57.05;92893.53;2051554;70;20170;-77
2023/09/11 02:59:05;;;;;;;13.40;10.38;;;;;;;21.87;58.03;92897.31;2051571;70;20152;-78
2023/09/11 03:01:31;;;;;;;12.82;10.75;;;;;;;21.88;58.81;92895.91;2051112;70;20212;-76
2023/09/11 03:03:58;;;;;;;15.82;10.82;;;;;;;21.88;57.01;92878.72;2051479;70;20234;-75
2023/09/11 03:06:23;;;;;;;16.55;11.45;;;;;;;21.76;58.97;92888.50;2048182;70;20150;-76
2023/09/11 03:08:49;;;;;;;13.30;10.48;;;;;;;21.83;58.00;92883.63;2051591;70;20142;-77
2023/09/11 03:11:14;;;;;;;15.90;10.73;;;;;;;21.88;57.39;92884.44;2048125;70;20138;-76
2023/09/11 03:13:40;;;;;;;14.35;11.30;;;;;;;21.93;57.41;92886.00;2051532;70;20151;-75
2023/09/11 03:16:12;;;;;;;15.00;10.63;;;;;;;21.86;56.72;92890.88;2051545;70;20158;-75
2023/09/11 03:18:43;;;;;;;13.75;10.52;;;;;;;21.90;56.70;92882.38;2048102;70;20628;-76
2023/09/11 03:21:09;;;;;;;16.45;10.68;;;;;;;21.80;55.99;92879.25;2051063;70;20146;-76
2023/09/11 03:23:36;;;;;;;14.80;10.95;;;;;;;21.83;56.46;92878.63;2048166;70;20146;-75
2023/09/11 03:26:02;;;;;;;14.18;10.57;;;;;;;21.90;56.56;92879.50;2045373;70;20150;-76
2023/09/11 03:28:29;;;;;;;14.18;10.90;;;;;;;21.79;57.72;92881.41;2048103;70;20208;-77
2023/09/11 03:30:56;;;;;;;13.80;11.02;;;;;;;21.80;56.49;92873.53;2048171;70;20165;-76
2023/09/11 03:33:22;;;;;;;13.40;10.75;;;;;;;21.59;57.42;92885.97;2048174;70;20154;-77
2023/09/11 03:35:48;;;;;;;16.73;10.60;;;;;;;21.51;59.04;92872.19;2048227;70;20649;-76
2023/09/11 03:38:14;;;;;;;14.15;10.55;;;;;;;21.58;59.35;92882.38;2051395;70;20142;-76
2023/09/11 03:40:43;;;;;;;18.35;11.88;;;;;;;21.42;58.57;92882.72;2048091;70;20238;-77
2023/09/11 03:43:09;;;;;;;13.82;10.82;;;;;;;21.71;56.87;92886.94;2048100;70;20153;-77
2023/09/11 03:45:35;;;;;;;13.73;10.65;;;;;;;21.65;58.54;92886.09;2048048;70;20591;-76
2023/09/11 03:48:01;;;;;;;14.50;10.68;;;;;;;21.64;57.08;92879.63;2047917;70;20209;-76
2023/09/11 03:50:27;;;;;;;14.15;10.30;;;;;;;21.62;57.26;92882.44;2050855;70;20482;-76
2023/09/11 03:52:53;;;;;;;15.90;10.50;;;;;;;21.67;56.47;92886.88;2051360;70;20177;-75
2023/09/11 03:55:18;;;;;;;13.43;10.13;;;;;;;21.51;56.76;92881.50;2051500;70;20186;-76
2023/09/11 03:57:44;;;;;;;13.15;10.70;;;;;;;21.69;55.81;92883.31;2048014;70;20633;-75
2023/09/11 04:00:11;;;;;;;13.50;10.05;;;;;;;21.63;56.66;92883.91;2050766;70;20598;-75
2023/09/11 04:02:41;;;;;;;14.43;10.00;;;;;;;21.57;56.95;92886.63;2047954;70;20150;-76
2023/09/11 04:05:06;;;;;;;14.02;10.68;;;;;;;21.65;56.29;92883.22;2051420;70;20527;-75
2023/09/11 04:07:32;;;;;;;14.07;10.60;;;;;;;21.54;57.83;92879.41;2045559;70;20587;-75
2023/09/11 04:09:59;;;;;;;15.75;10.82;;;;;;;21.48;57.20;92882.84;2044027;70;20143;-76
2023/09/11 04:12:25;;;;;;;12.52;10.38;;;;;;;21.47;58.17;92880.69;2041682;70;20174;-76
2023/09/11 04:14:50;;;;;;;13.40;10.18;;;;;;;21.35;58.42;92889.72;2041758;70;20157;-78
2023/09/11 04:17:16;;;;;;;13.82;10.55;;;;;;;21.41;58.67;92883.41;2041487;70;20162;-76
2023/09/11 04:19:43;;;;;;;12.85;9.73;;;;;;;21.30;56.98;92888.13;2044347;70;20612;-75
2023/09/11 04:22:09;;;;;;;12.57;10.40;;;;;;;21.14;57.67;92887.75;2041578;70;20146;-77
2023/09/11 04:24:35;;;;;;;14.65;10.40;;;;;;;21.26;56.89;92883.03;2044286;70;20504;-77
2023/09/11 04:27:02;;;;;;;13.27;9.82;;;;;;;21.42;55.29;92884.84;2044314;70;20154;-76
2023/09/11 04:29:29;;;;;;;14.32;9.68;;;;;;;21.38;56.04;92890.47;2044251;70;20598;-75
2023/09/11 04:31:56;;;;;;;19.08;10.10;;;;;;;21.21;57.46;92884.34;2041491;70;20183;-74
2023/09/11 04:34:24;;;;;;;16.17;10.50;;;;;;;21.24;57.57;92882.97;2044397;70;20150;-75
2023/09/11 04:36:50;;;;;;;16.13;10.02;;;;;;;20.97;57.50;92875.16;2039504;70;20246;-75
2023/09/11 04:39:16;;;;;;;18.95;12.93;;;;;;;21.06;57.31;92873.94;2041194;70;20143;-75
2023/09/11 04:41:43;;;;;;;17.08;11.00;;;;;;;21.08;58.20;92879.00;2044789;70;20574;-75
2023/09/11 04:44:09;;;;;;;14.27;12.07;;;;;;;21.05;58.17;92881.81;2041406;70;20154;-75
2023/09/11 04:46:35;;;;;;;17.83;11.30;;;;;;;21.06;58.26;92886.13;2041376;70;20154;-74
2023/09/11 04:49:01;;;;;;;15.90;11.35;;;;;;;20.96;58.78;92885.16;2041529;70;20159;-75
2023/09/11 04:51:28;;;;;;;14.18;10.30;;;;;;;20.98;57.72;92885.94;2041591;70;20194;-74
2023/09/11 04:53:54;;;;;;;16.90;10.30;;;;;;;21.03;57.04;92875.31;2044823;70;20539;-76
2023/09/11 04:56:20;;;;;;;14.40;10.20;;;;;;;21.03;57.91;92876.06;2041483;70;20150;-76
2023/09/11 04:58:46;;;;;;;14.20;9.70;;;;;;;21.08;58.14;92881.88;2041439;70;20205;-75
2023/09/11 05:01:13;;;;;;;15.88;10.20;;;;;;;20.89;58.43;92886.38;2041579;70;20158;-75
2023/09/11 05:03:40;;;;;;;12.90;10.57;;;;;;;20.87;58.26;92886.34;2040949;70;20190;-75
2023/09/11 05:06:06;;;;;;;17.55;11.23;;;;;;;20.87;58.00;92883.50;2036126;70;20166;-74
2023/09/11 05:08:32;;;;;;;18.98;10.93;;;;;;;20.86;56.89;92874.19;2044826;70;20154;-74
2023/09/11 05:11:01;;;;;;;14.43;10.05;;;;;;;20.99;57.62;92886.66;2045001;70;20146;-77
2023/09/11 05:13:27;;;;;;;14.85;9.73;;;;;;;21.00;56.96;92885.25;2045038;70;20273;-74
2023/09/11 05:15:53;;;;;;;13.35;9.63;;;;;;;20.87;56.46;92881.34;2045080;70;20151;-73
2023/09/11 05:18:19;;;;;;;13.07;9.20;;;;;;;20.97;58.15;92884.47;2044931;70;20169;-73
2023/09/11 05:20:46;;;;;;;16.20;10.07;;;;;;;20.93;58.34;92884.34;2044967;70;20139;-74
2023/09/11 05:23:12;;;;;;;13.10;9.32;;;;;;;20.93;58.61;92884.34;2045043;70;20150;-74
2023/09/11 05:25:37;;;;;;;12.38;9.30;;;;;;;20.90;58.28;92882.16;2048419;70;20155;-73
2023/09/11 05:28:03;;;;;;;12.85;9.98;;;;;;;20.87;57.98;92883.50;2048290;70;20137;-73
2023/09/11 05:30:29;;;;;;;14.52;9.27;;;;;;;20.92;57.91;92891.50;2048311;70;20591;-73
2023/09/11 05:32:54;;;;;;;13.95;9.27;;;;;;;20.95;58.63;92892.28;2048100;70;20163;-73
2023/09/11 05:35:20;;;;;;;15.00;9.90;;;;;;;20.84;57.88;92893.41;2048408;70;20151;-73
2023/09/11 05:37:46;;;;;;;15.45;10.57;;;;;;;20.70;58.37;92896.63;2048276;70;20139;-77
2023/09/11 05:40:12;;;;;;;15.80;10.77;;;;;;;20.62;58.74;92890.69;2044952;70;20531;-75
2023/09/11 05:42:37;;;;;;;14.90;10.35;;;;;;;20.66;59.74;92900.13;2048273;70;20159;-73
2023/09/11 05:45:04;;;;;;;14.43;10.10;;;;;;;20.72;57.88;92908.16;2048272;70;20189;-75
2023/09/11 05:47:29;;;;;;;16.42;10.32;;;;;;;20.75;58.73;92898.91;2048195;70;20235;-74
2023/09/11 05:50:00;;;;;;;13.45;9.70;;;;;;;20.83;58.96;92909.13;2048242;70;20158;-74
2023/09/11 05:52:29;;;;;;;14.38;9.63;;;;;;;20.77;60.37;92909.72;2048346;70;20177;-74
2023/09/11 05:54:54;;;;;;;14.68;10.10;;;;;;;20.76;59.60;92916.84;2048352;70;20165;-74
2023/09/11 05:57:20;;;;;;;15.80;9.68;;;;;;;20.75;61.19;92910.38;2044937;70;20595;-74
2023/09/11 05:59:46;;;;;;;13.43;9.60;;;;;;;20.70;61.33;92913.81;2048270;70;20205;-74
2023/09/11 06:02:12;;;;;;;13.27;9.70;;;;;;;20.77;59.23;92913.28;2048110;70;20229;-74
2023/09/11 06:04:37;;;;;;;17.50;10.50;;;;;;;20.76;58.87;92906.13;2048308;70;20633;-74
2023/09/11 06:07:03;;;;;;;17.02;9.48;;;;;;;20.80;57.47;92900.50;2048170;70;20172;-78
2023/09/11 06:09:29;;;;;;;15.05;10.45;;;;;;;20.88;58.14;92907.81;2048225;70;20595;-74
2023/09/11 06:11:55;;;;;;;15.27;9.45;;;;;;;20.75;59.01;92907.50;2048152;70;20146;-74
2023/09/11 06:14:21;;;;;;;16.30;10.27;;;;;;;20.82;59.28;92905.53;2048304;70;20222;-74
2023/09/11 06:16:46;;;;;;;14.48;9.70;;;;;;;20.71;61.19;92918.88;2044894;70;20163;-78
2023/09/11 06:19:12;;;;;;;15.45;9.82;;;;;;;20.71;61.81;92906.66;2048132;70;20139;-74
2023/09/11 06:21:37;;;;;;;13.98;9.98;;;;;;;20.65;60.77;92915.81;2048216;70;20143;-75
2023/09/11 06:24:06;;;;;;;14.55;10.10;;;;;;;20.74;59.60;92914.63;2048112;70;20153;-75
2023/09/11 06:26:32;;;;;;;15.60;9.98;;;;;;;20.82;60.73;92908.41;2048294;70;20146;-76
2023/09/11 06:28:58;;;;;;;12.48;9.38;;;;;;;20.88;58.82;92917.13;2048173;70;20162;-75
2023/09/11 06:31:24;;;;;;;15.90;9.40;;;;;;;21.06;57.30;92911.16;2048153;70;20155;-76
2023/09/11 06:33:50;;;;;;;14.88;9.20;;;;;;;21.09;58.88;92904.09;2047887;70;20233;-75
2023/09/11 06:36:16;;;;;;;15.82;9.30;;;;;;;21.08;58.46;92904.78;2044860;70;20199;-76
2023/09/11 06:38:41;;;;;;;14.30;9.77;;;;;;;21.16;57.70;92905.69;2048223;70;20241;-76
2023/09/11 06:41:09;;;;;;;13.10;9.95;;;;;;;20.88;57.32;92905.69;2048134;70;20197;-76
2023/09/11 06:43:37;;;;;;;15.02;9.88;;;;;;;21.04;56.46;92911.84;2048314;70;20654;-77
2023/09/11 06:46:03;;;;;;;15.02;10.35;;;;;;;20.93;57.15;92906.53;2044991;70;20245;-77
2023/09/11 06:48:29;;;;;;;11.82;9.38;;;;;;;21.10;57.22;92907.69;2048020;70;20156;-76
2023/09/11 06:50:55;;;;;;;19.10;9.70;;;;;;;21.27;59.41;92912.41;2048169;70;20150;-77
2023/09/11 06:53:21;;;;;;;13.70;9.77;;;;;;;21.52;58.62;92911.59;2048166;70;20515;-77
2023/09/11 06:55:47;;;;;;;13.13;9.27;;;;;;;21.79;59.43;92907.19;2044968;70;20549;-77
2023/09/11 06:58:19;;;;;;;19.50;10.25;;;;;;;21.86;55.31;92905.19;2048115;70;20165;-77
2023/09/11 07:00:45;;;;;;;16.30;9.95;;;;;;;21.91;54.17;92903.16;2048198;70;20595;-76
2023/09/11 07:03:10;;;;;;;14.43;9.38;;;;;;;22.26;53.95;92905.34;2048068;70;20150;-76
2023/09/11 07:05:38;;;;;;;15.85;9.35;;;;;;;22.47;53.14;92902.91;2048140;70;20214;-76
2023/09/11 07:08:03;;;;;;;16.40;9.32;;;;;;;22.34;52.32;92904.78;2048121;70;20145;-77
2023/09/11 07:10:29;;;;;;;15.68;9.25;;;;;;;22.68;51.98;92906.88;2048097;70;20147;-77
2023/09/11 07:12:55;;;;;;;12.63;9.38;;;;;;;22.76;52.57;92904.16;2044851;70;20158;-78
2023/09/11 07:15:20;;;;;;;15.88;9.43;;;;;;;22.71;52.50;92896.91;2048093;70;20143;-77
2023/09/11 07:17:48;;;;;;;15.13;8.70;;;;;;;23.12;52.31;92897.66;2047936;70;20142;-76
2023/09/11 07:20:15;;;;;;;13.45;9.50;;;;;;;23.25;52.92;92893.56;2048165;70;20189;-77
2023/09/11 07:22:41;;;;;;;15.30;8.73;;;;;;;23.12;51.37;92894.78;2048049;70;20150;-76
2023/09/11 07:25:12;;;;;;;19.77;10.38;;;;;;;23.77;50.38;92902.31;2048045;70;20138;-77
2023/09/11 07:27:38;;;;;;;13.30;8.93;;;;;;;23.41;50.73;92893.09;2048055;70;20170;-77
2023/09/11 07:30:05;;;;;;;18.42;9.40;;;;;;;23.91;50.19;92898.91;2048059;70;20231;-76
2023/09/11 07:32:30;;;;;;;12.07;8.98;;;;;;;23.73;50.48;92890.78;2048039;70;20170;-77
2023/09/11 07:34:56;;;;;;;12.88;9.02;;;;;;;23.76;50.53;92894.41;2048013;70;20135;-76
2023/09/11 07:37:22;;;;;;;19.50;9.52;;;;;;;23.95;49.60;92886.75;2048064;70;20142;-77
2023/09/11 07:39:48;;;;;;;10.57;8.55;;;;;;;24.38;50.15;92888.09;2047998;70;20523;-77
2023/09/11 07:42:14;;;;;;;14.27;9.23;;;;;;;24.56;49.37;92888.28;2044735;70;20248;-77
2023/09/11 07:44:40;;;;;;;13.77;8.80;;;;;;;25.11;47.89;92882.41;2048141;70;20161;-77
2023/09/11 07:47:06;;;;;;;11.93;8.27;;;;;;;25.71;48.04;92878.59;2047826;70;20541;-78
2023/09/11 07:49:32;;;;;;;15.93;8.85;;;;;;;25.94;47.22;92876.59;2048216;70;20167;-78
2023/09/11 07:51:57;;;;;;;14.30;8.63;;;;;;;25.70;47.16;92882.88;2044674;70;20607;-78
2023/09/11 07:54:23;;;;;;;16.55;8.73;;;;;;;25.98;46.81;92879.50;2044688;70;20155;-78
2023/09/11 07:56:52;;;;;;;15.45;9.18;;;;;;;26.17;46.27;92870.97;2048088;70;20139;-79
2023/09/11 07:59:18;;;;;;;13.30;8.82;;;;;;;26.03;45.58;92860.06;2047993;70;20289;-79
2023/09/11 08:01:45;;;;;;;13.80;8.93;;;;;;;26.03;45.58;92866.56;2047966;70;20143;-78
2023/09/11 08:04:12;;;;;;;13.05;9.20;;;;;;;27.01;45.02;92864.06;2044594;70;20145;-79
2023/09/11 08:06:37;;;;;;;14.05;9.13;;;;;;;26.69;45.93;92863.97;2044726;70;20170;-78
2023/09/11 08:09:04;;;;;;;11.93;9.07;;;;;;;27.16;45.48;92864.09;2044684;70;20158;-78
2023/09/11 08:11:34;;;;;;;12.02;8.50;;;;;;;27.47;44.20;92859.78;2047920;70;20139;-78
2023/09/11 08:14:00;;;;;;;13.25;9.25;;;;;;;27.49;44.97;92859.81;2045964;70;20178;-78
2023/09/11 08:16:26;;;;;;;12.52;8.68;;;;;;;27.84;44.46;92854.72;2048399;70;20649;-78
2023/09/11 08:18:52;;;;;;;13.48;9.32;;;;;;;27.43;44.00;92856.88;2048099;70;20144;-78
2023/09/11 08:21:19;;;;;;;16.48;8.68;;;;;;;28.15;44.31;92856.84;2044700;70;20665;-78
2023/09/11 08:23:46;;;;;;;10.50;8.50;;;;;;;28.14;43.96;92864.81;2048087;70;20158;-79
2023/09/11 08:26:12;;;;;;;12.93;8.27;;;;;;;27.92;44.01;92850.38;2044667;70;20147;-79
2023/09/11 08:28:38;;;;;;;13.73;8.38;;;;;;;28.38;42.73;92843.06;2041939;70;20149;-80
2023/09/11 08:31:04;;;;;;;12.70;8.82;;;;;;;28.91;42.02;92857.28;2047874;70;20151;-79
2023/09/11 08:33:30;;;;;;;12.98;8.50;;;;;;;28.96;41.18;92850.75;2047804;70;20158;-79
2023/09/11 08:35:57;;;;;;;12.32;8.38;;;;;;;28.71;41.06;92853.03;2047948;70;20174;-79
2023/09/11 08:38:24;;;;;;;16.55;8.90;;;;;;;29.36;40.74;92849.03;2048036;70;20135;-78
2023/09/11 08:40:50;;;;;;;10.48;8.20;;;;;;;29.47;41.11;92852.59;2044719;70;20610;-79
2023/09/11 08:43:17;;;;;;;12.48;8.50;;;;;;;29.75;39.59;92848.75;2044646;70;20135;-79
2023/09/11 08:45:44;;;;;;;13.73;8.02;;;;;;;30.08;38.01;92846.25;2044634;70;20149;-79
2023/09/11 08:48:13;;;;;;;11.48;7.82;;;;;;;30.23;38.52;92849.75;2047847;70;20158;-78
2023/09/11 08:50:50;;;;;;;12.95;8.68;;;;;;;29.97;37.78;92850.75;2048071;70;20598;-79
2023/09/11 08:53:18;;;;;;;11.32;8.52;;;;;;;30.61;38.26;92840.63;2047865;70;20198;-79
2023/09/11 08:55:46;;;;;;;9.73;8.27;;;;;;;30.84;37.00;92838.16;2044686;70;20143;-80
2023/09/11 08:58:15;;;;;;;11.20;8.10;;;;;;;30.66;37.32;92829.66;2045135;70;20233;-79
2023/09/11 09:00:41;;;;;;;10.32;8.50;;;;;;;30.34;37.39;92831.50;2048500;70;20146;-79
2023/09/11 09:03:08;;;;;;;15.07;9.25;;;;;;;30.33;36.57;92827.16;2048425;70;20154;-79
2023/09/11 09:05:36;;;;;;;11.68;8.30;;;;;;;31.28;36.14;92829.56;2048528;70;20142;-79
2023/09/11 09:08:07;;;;;;;11.27;8.15;;;;;;;31.81;35.86;92823.63;2052020;70;20135;-79
2023/09/11 09:10:33;;;;;;;11.38;8.80;;;;;;;31.48;35.40;92817.66;2051909;70;20515;-77
2023/09/11 09:13:00;;;;;;;12.57;8.77;;;;;;;31.27;35.90;92820.13;2051990;70;20150;-77
2023/09/11 09:15:29;;;;;;;11.30;8.38;;;;;;;31.55;37.32;92818.25;2052052;70;20146;-78
2023/09/11 09:17:57;;;;;;;13.57;8.65;;;;;;;32.45;36.31;92820.31;2052053;70;20657;-78
2023/09/11 09:20:22;;;;;;;13.38;8.65;;;;;;;32.20;35.90;92814.22;2052031;70;20681;-77
2023/09/11 09:22:59;;;;;;;11.82;8.55;;;;;;;32.94;34.77;92804.03;2052079;70;20158;-80
2023/09/11 09:25:29;;;;;;;12.48;8.50;;;;;;;33.27;35.29;92804.75;2052211;70;20338;-80
2023/09/11 09:27:59;;;;;;;10.95;9.00;;;;;;;33.63;35.20;92796.59;2052089;70;20157;-78
2023/09/11 09:30:29;;;;;;;12.73;9.05;;;;;;;33.79;34.98;92804.25;2046055;70;20161;-78
2023/09/11 09:32:58;;;;;;;9.48;8.40;;;;;;;33.80;34.04;92794.00;2051983;70;20615;-78
2023/09/11 09:35:30;;;;;;;9.85;8.85;;;;;;;33.84;34.73;92791.69;2052016;70;20182;-78
2023/09/11 09:38:02;;;;;;;9.85;8.85;;;;;;;34.26;33.99;92791.38;2051765;70;20566;-79
2023/09/11 09:40:38;;;;;;;9.07;7.82;;;;;;;34.90;33.59;92788.09;2051903;70;20634;-78
2023/09/11 09:43:05;;;;;;;12.57;8.40;;;;;;;35.22;32.57;92786.41;2048849;70;20138;-78
2023/09/11 09:45:38;;;;;;;9.43;8.10;;;;;;;35.22;33.00;92779.84;2051881;70;20154;-78
2023/09/11 09:48:15;;;;;;;10.20;8.50;;;;;;;35.75;32.69;92781.13;2051852;70;20229;-79
2023/09/11 09:51:02;;;;;;;11.98;8.80;;;;;;;35.44;32.24;92770.38;2051798;70;20606;-78
2023/09/11 09:53:36;;;;;;;11.30;8.60;;;;;;;35.60;32.27;92772.06;2051905;70;20557;-79
2023/09/11 09:56:07;;;;;;;9.52;8.60;;;;;;;35.60;32.70;92760.34;2052034;70;20155;-78
2023/09/11 09:58:44;;;;;;;10.57;8.88;;;;;;;35.02;32.13;92757.81;2048804;70;20158;-78
2023/09/11 10:01:15;;;;;;;10.40;8.77;;;;;;;35.14;32.48;92749.38;2051903;70;20173;-78
2023/09/11 10:03:48;;;;;;;10.02;8.93;;;;;;;36.78;31.13;92743.81;2051770;70;20154;-79
2023/09/11 10:06:27;;;;;;;11.02;8.13;;;;;;;37.14;30.59;92747.56;2048810;70;20130;-79
2023/09/11 10:09:13;;;;;;;9.45;8.35;;;;;;;37.70;30.33;92746.81;2048152;70;20515;-79
2023/09/11 10:11:45;;;;;;;9.57;8.23;;;;;;;37.82;30.97;92743.38;2045052;70;20177;-78
2023/09/11 10:14:11;;;;;;;10.07;8.57;;;;;;;37.39;30.79;92732.69;2048255;70;20158;-79
2023/09/11 10:16:37;;;;;;;9.63;8.48;;;;;;;37.57;30.69;92737.81;2048232;70;20147;-78
2023/09/11 10:19:04;;;;;;;10.35;8.93;;;;;;;36.97;30.09;92732.81;2044965;70;20150;-79
2023/09/11 10:21:32;;;;;;;10.73;8.60;;;;;;;36.76;30.66;92727.00;2048227;70;20154;-79
2023/09/11 10:23:57;;;;;;;11.18;8.57;;;;;;;38.62;30.00;92725.25;2044928;70;20185;-79
2023/09/11 10:26:56;;;;;;;10.52;8.40;;;;;;;38.41;30.21;92722.53;2048209;70;20526;-79
2023/09/11 10:29:43;;;;;;;10.18;8.65;;;;;;;39.00;29.46;92713.97;2048087;70;20153;-78
2023/09/11 10:32:15;;;;;;;11.43;8.95;;;;;;;40.78;27.25;92719.81;2047998;70;20143;-79
2023/09/11 10:34:40;;;;;;;11.73;8.75;;;;;;;41.29;26.80;92720.03;2048236;70;20171;-79
2023/09/11 10:37:10;;;;;;;11.88;9.00;;;;;;;41.74;26.55;92718.19;2048176;70;20195;-79
2023/09/11 10:39:37;;;;;;;12.50;8.90;;;;;;;41.88;26.05;92710.78;2048305;70;20245;-79
2023/09/11 10:42:04;;;;;;;10.32;9.27;;;;;;;40.94;26.86;92706.44;2048144;70;20233;-79
2023/09/11 10:44:35;;;;;;;10.57;8.45;;;;;;;42.90;25.54;92698.75;2048298;70;20241;-79
2023/09/11 10:47:03;;;;;;;9.27;8.40;;;;;;;43.43;24.68;92694.66;2044857;70;20154;-81
2023/09/11 10:49:34;;;;;;;9.50;8.48;;;;;;;43.58;24.52;92707.03;2048211;70;20151;-82
2023/09/11 10:52:02;;;;;;;8.93;8.00;;;;;;;43.94;24.92;92709.16;2048372;70;20149;-82
2023/09/11 10:54:28;;;;;;;9.25;8.35;;;;;;;42.22;25.97;92693.25;2048205;70;20237;-81
2023/09/11 10:56:56;;;;;;;9.10;8.20;;;;;;;41.98;26.16;92685.84;2049523;70;20610;-82
2023/09/11 10:59:24;;;;;;;9.48;7.70;;;;;;;43.62;23.93;92683.06;2051402;70;20174;-82
2023/09/11 11:01:50;;;;;;;11.13;7.43;;;;;;;43.38;23.88;92679.41;2051360;70;20138;-82
2023/09/11 11:04:16;;;;;;;8.55;7.75;;;;;;;44.07;24.90;92674.16;2051338;70;20225;-81
2023/09/11 11:06:46;;;;;;;8.55;7.43;;;;;;;44.99;22.49;92674.47;2051332;70;20678;-82
2023/09/11 11:09:30;;;;;;;8.07;7.38;;;;;;;44.82;24.21;92671.97;2051584;70;20202;-83
2023/09/11 11:12:05;;;;;;;8.57;7.45;;;;;;;46.93;21.42;92668.25;2051581;70;20221;-83
2023/09/11 11:14:31;;;;;;;8.48;7.53;;;;;;;47.83;20.96;92664.69;2051522;70;20165;-83
2023/09/11 11:17:10;;;;;;;10.13;7.00;;;;;;;48.26;20.28;92661.13;2051620;70;20504;-83
2023/09/11 11:19:59;;;;;;;7.88;6.50;;;;;;;48.53;21.25;92659.59;2052407;70;20154;-82
2023/09/11 11:22:30;;;;;;;9.40;6.68;;;;;;;47.52;20.97;92654.56;2054541;70;20152;-83
2023/09/11 11:24:58;;;;;;;9.40;6.57;;;;;;;47.03;20.27;92649.56;2054567;70;20165;-83